createdAt,value
2018-11-10T00:00:31.714Z,0
2018-11-10T00:01:45.975Z,0
2018-11-10T00:03:00.009Z,0
2018-11-10T00:04:14.816Z,0
2018-11-10T00:05:28.384Z,0
2018-11-10T00:06:42.440Z,0
2018-11-10T00:07:57.076Z,0
2018-11-10T00:09:10.704Z,0
2018-11-10T00:10:24.497Z,0
2018-11-10T00:11:38.092Z,0
2018-11-10T00:12:52.384Z,0
2018-11-10T00:14:07.125Z,0
2018-11-10T00:15:21.405Z,0
2018-11-10T00:16:36.058Z,0
2018-11-10T00:17:50.031Z,0
2018-11-10T00:19:04.138Z,0
2018-11-10T00:20:17.953Z,0
2018-11-10T00:21:31.543Z,0
2018-11-10T00:22:46.080Z,0
2018-11-10T00:24:00.342Z,0
2018-11-10T00:25:13.914Z,0
2018-11-10T00:26:28.460Z,0
2018-11-10T00:27:42.018Z,0
2018-11-10T00:28:56.282Z,0
2018-11-10T00:30:10.058Z,0
2018-11-10T00:31:24.343Z,0
2018-11-10T00:32:38.603Z,0
2018-11-10T00:33:52.418Z,0
2018-11-10T00:35:06.458Z,0
2018-11-10T00:36:20.255Z,0
2018-11-10T00:37:34.036Z,0
2018-11-10T00:38:48.133Z,0
2018-11-10T00:40:02.646Z,0
2018-11-10T00:41:17.150Z,0
2018-11-10T00:42:30.959Z,0
2018-11-10T00:43:44.760Z,0
2018-11-10T00:44:58.802Z,0
2018-11-10T00:46:12.918Z,0
2018-11-10T00:47:27.167Z,0
2018-11-10T00:48:41.212Z,0
2018-11-10T00:49:55.236Z,0
2018-11-10T00:51:09.565Z,0
2018-11-10T00:52:23.221Z,0
2018-11-10T00:53:37.255Z,0
2018-11-10T00:54:50.798Z,0
2018-11-10T00:56:04.578Z,0
2018-11-10T00:57:33.800Z,0
2018-11-10T00:58:48.289Z,0
2018-11-10T01:00:02.795Z,0
2018-11-10T01:01:16.604Z,0
2018-11-10T01:02:30.428Z,0
2018-11-10T01:03:44.225Z,0
2018-11-10T01:04:58.255Z,0
2018-11-10T01:06:12.504Z,0
2018-11-10T01:07:26.312Z,0
2018-11-10T01:08:40.576Z,0
2018-11-10T01:09:54.925Z,0
2018-11-10T01:11:08.462Z,0
2018-11-10T01:12:22.331Z,0
2018-11-10T01:13:36.174Z,0
2018-11-10T01:14:50.162Z,0
2018-11-10T01:16:03.948Z,0
2018-11-10T01:17:17.749Z,0
2018-11-10T01:18:31.766Z,0
2018-11-10T01:19:46.031Z,0
2018-11-10T01:21:00.054Z,0
2018-11-10T01:22:14.111Z,0
2018-11-10T01:23:42.595Z,0
2018-11-10T01:24:57.172Z,0
2018-11-10T01:26:10.983Z,0
2018-11-10T01:27:25.363Z,0
2018-11-10T01:28:39.446Z,0
2018-11-10T01:29:53.733Z,0
2018-11-10T01:31:07.821Z,0
2018-11-10T01:32:21.937Z,0
2018-11-10T01:33:35.951Z,0
2018-11-10T01:34:50.050Z,0
2018-11-10T01:36:03.816Z,0
2018-11-10T01:37:18.037Z,0
2018-11-10T01:38:31.716Z,0
2018-11-10T01:39:45.489Z,0
2018-11-10T01:40:59.995Z,0
2018-11-10T01:42:13.770Z,0
2018-11-10T01:43:27.623Z,0
2018-11-10T01:44:41.692Z,0
2018-11-10T01:45:55.719Z,0
2018-11-10T01:47:10.298Z,0
2018-11-10T01:48:24.105Z,0
2018-11-10T01:49:37.897Z,0
2018-11-10T01:50:51.684Z,0
2018-11-10T01:52:05.567Z,0
2018-11-10T01:53:19.612Z,0
2018-11-10T01:54:33.870Z,0
2018-11-10T01:55:47.898Z,0
2018-11-10T01:57:02.144Z,0
2018-11-10T01:58:16.502Z,0
2018-11-10T01:59:30.590Z,0
2018-11-10T02:00:44.372Z,0
2018-11-10T02:01:57.929Z,0
2018-11-10T02:03:11.927Z,0
2018-11-10T02:04:26.169Z,0
2018-11-10T02:05:40.446Z,0
2018-11-10T02:06:54.998Z,0
2018-11-10T02:08:09.012Z,0
2018-11-10T02:09:22.821Z,0
2018-11-10T02:10:36.849Z,0
2018-11-10T02:11:51.401Z,0
2018-11-10T02:13:05.649Z,0
2018-11-10T02:14:19.398Z,0
2018-11-10T02:15:33.173Z,0
2018-11-10T02:16:46.938Z,0
2018-11-10T02:18:00.973Z,0
2018-11-10T02:19:14.957Z,0
2018-11-10T02:20:28.502Z,0
2018-11-10T02:21:42.516Z,0
2018-11-10T02:22:56.283Z,0
2018-11-10T02:24:10.576Z,0
2018-11-10T02:25:24.105Z,0
2018-11-10T02:26:37.888Z,0
2018-11-10T02:27:52.148Z,0
2018-11-10T02:29:05.942Z,0
2018-11-10T02:30:19.985Z,0
2018-11-10T02:31:33.925Z,0
2018-11-10T02:32:48.226Z,0
2018-11-10T02:34:02.492Z,0
2018-11-10T02:35:16.283Z,0
2018-11-10T02:36:30.313Z,0
2018-11-10T02:37:44.377Z,0
2018-11-10T02:38:58.373Z,0
2018-11-10T02:40:12.474Z,0
2018-11-10T02:41:26.497Z,0
2018-11-10T02:42:55.552Z,0
2018-11-10T02:44:10.049Z,0
2018-11-10T02:45:23.631Z,0
2018-11-10T02:46:38.029Z,0
2018-11-10T02:47:51.859Z,0
2018-11-10T02:49:06.164Z,0
2018-11-10T02:50:19.953Z,0
2018-11-10T02:51:33.716Z,0
2018-11-10T02:52:48.219Z,0
2018-11-10T02:54:01.710Z,0
2018-11-10T02:55:16.020Z,0
2018-11-10T02:56:30.323Z,0
2018-11-10T02:57:44.342Z,0
2018-11-10T02:58:57.878Z,0
2018-11-10T03:00:12.183Z,0
2018-11-10T03:01:26.233Z,0
2018-11-10T03:02:39.798Z,0
2018-11-10T03:03:53.828Z,0
2018-11-10T03:05:07.715Z,0
2018-11-10T03:06:21.984Z,0
2018-11-10T03:07:36.247Z,0
2018-11-10T03:08:50.035Z,0
2018-11-10T03:10:03.564Z,0
2018-11-10T03:11:17.604Z,0
2018-11-10T03:12:31.212Z,0
2018-11-10T03:13:45.076Z,0
2018-11-10T03:14:59.340Z,0
2018-11-10T03:16:13.415Z,0
2018-11-10T03:17:27.075Z,0
2018-11-10T03:18:41.327Z,0
2018-11-10T03:19:55.594Z,0
2018-11-10T03:21:09.397Z,0
2018-11-10T03:22:23.641Z,0
2018-11-10T03:23:37.429Z,0
2018-11-10T03:24:51.444Z,0
2018-11-10T03:26:05.747Z,0
2018-11-10T03:27:19.579Z,0
2018-11-10T03:28:33.377Z,0
2018-11-10T03:29:47.628Z,0
2018-11-10T03:31:01.662Z,0
2018-11-10T03:32:16.018Z,0
2018-11-10T03:33:29.792Z,0
2018-11-10T03:34:43.603Z,0
2018-11-10T03:35:57.602Z,0
2018-11-10T03:37:11.862Z,0
2018-11-10T03:38:26.340Z,0
2018-11-10T03:39:40.354Z,0
2018-11-10T03:40:53.906Z,0
2018-11-10T03:42:07.245Z,0
2018-11-10T03:43:20.796Z,0
2018-11-10T03:44:35.080Z,0
2018-11-10T03:45:48.853Z,0
2018-11-10T03:47:03.091Z,0
2018-11-10T03:48:16.878Z,0
2018-11-10T03:49:30.663Z,0
2018-11-10T03:50:44.954Z,0
2018-11-10T03:51:58.971Z,0
2018-11-10T03:53:12.990Z,0
2018-11-10T03:54:27.249Z,0
2018-11-10T03:55:41.489Z,0
2018-11-10T03:56:55.750Z,0
2018-11-10T03:58:09.393Z,0
2018-11-10T03:59:23.664Z,0
2018-11-10T04:00:37.470Z,0
2018-11-10T04:01:51.250Z,0
2018-11-10T04:03:04.829Z,0
2018-11-10T04:04:18.735Z,0
2018-11-10T04:05:33.015Z,0
2018-11-10T04:06:46.318Z,0
2018-11-10T04:08:00.059Z,0
2018-11-10T04:09:14.075Z,0
2018-11-10T04:10:27.942Z,0
2018-11-10T04:11:42.284Z,0
2018-11-10T04:12:56.077Z,0
2018-11-10T04:14:09.890Z,0
2018-11-10T04:15:24.203Z,0
2018-11-10T04:16:37.529Z,0
2018-11-10T04:17:51.759Z,0
2018-11-10T04:19:04.881Z,0
2018-11-10T04:20:18.680Z,0
2018-11-10T04:21:32.760Z,0
2018-11-10T04:22:46.776Z,0
2018-11-10T04:24:00.780Z,0
2018-11-10T04:25:29.754Z,0
2018-11-10T04:26:44.575Z,0
2018-11-10T04:27:58.582Z,0
2018-11-10T04:29:12.920Z,0
2018-11-10T04:30:26.937Z,0
2018-11-10T04:31:40.715Z,0
2018-11-10T04:32:54.797Z,0
2018-11-10T04:34:09.314Z,0
2018-11-10T04:35:37.295Z,0
2018-11-10T04:36:51.549Z,0
2018-11-10T04:38:05.406Z,0
2018-11-10T04:39:19.902Z,0
2018-11-10T04:40:34.427Z,0
2018-11-10T04:41:48.437Z,0
2018-11-10T04:43:02.655Z,0
2018-11-10T04:44:17.012Z,0
2018-11-10T04:45:31.076Z,0
2018-11-10T04:46:45.123Z,0
2018-11-10T04:47:59.190Z,0
2018-11-10T04:49:13.215Z,0
2018-11-10T04:50:27.206Z,0
2018-11-10T04:51:40.797Z,0
2018-11-10T04:52:55.073Z,0
2018-11-10T04:54:09.092Z,0
2018-11-10T04:55:22.938Z,0
2018-11-10T04:56:37.203Z,0
2018-11-10T04:57:51.224Z,0
2018-11-10T04:59:05.529Z,0
2018-11-10T05:00:19.066Z,0
2018-11-10T05:01:33.611Z,0
2018-11-10T05:02:48.172Z,0
2018-11-10T05:04:02.211Z,0
2018-11-10T05:05:16.432Z,0
2018-11-10T05:06:30.474Z,0
2018-11-10T05:07:44.273Z,0
2018-11-10T05:08:58.546Z,0
2018-11-10T05:10:13.043Z,0
2018-11-10T05:11:26.842Z,0
2018-11-10T05:12:41.113Z,0
2018-11-10T05:13:55.408Z,0
2018-11-10T05:15:08.963Z,0
2018-11-10T05:16:23.004Z,0
2018-11-10T05:17:36.880Z,0
2018-11-10T05:18:51.165Z,0
2018-11-10T05:20:04.727Z,0
2018-11-10T05:21:18.755Z,0
2018-11-10T05:22:32.610Z,0
2018-11-10T05:23:46.912Z,0
2018-11-10T05:25:01.171Z,0
2018-11-10T05:26:15.421Z,0
2018-11-10T05:27:29.447Z,0
2018-11-10T05:28:43.503Z,0
2018-11-10T05:29:57.744Z,0
2018-11-10T05:31:11.979Z,0
2018-11-10T05:32:26.819Z,0
2018-11-10T05:33:40.610Z,0
2018-11-10T05:34:54.464Z,0
2018-11-10T05:36:08.932Z,0
2018-11-10T05:37:22.937Z,0
2018-11-10T05:38:37.421Z,0
2018-11-10T05:39:51.435Z,0
2018-11-10T05:41:05.955Z,0
2018-11-10T05:42:20.081Z,0
2018-11-10T05:43:34.328Z,0
2018-11-10T05:44:48.720Z,0
2018-11-10T05:46:02.548Z,0
2018-11-10T05:47:17.157Z,0
2018-11-10T05:48:31.179Z,0
2018-11-10T05:49:45.218Z,0
2018-11-10T05:50:59.373Z,0
2018-11-10T05:52:12.995Z,0
2018-11-10T05:53:27.062Z,0
2018-11-10T05:54:41.600Z,0
2018-11-10T05:55:55.965Z,0
2018-11-10T05:57:10.183Z,0
2018-11-10T05:58:24.648Z,0
2018-11-10T05:59:39.023Z,0
2018-11-10T06:00:53.338Z,0
2018-11-10T06:02:07.857Z,0
2018-11-10T06:03:21.841Z,0
2018-11-10T06:04:35.936Z,0
2018-11-10T06:05:49.732Z,0
2018-11-10T06:07:03.755Z,0
2018-11-10T06:08:18.060Z,4
2018-11-10T06:09:32.873Z,0
2018-11-10T06:10:47.364Z,4
2018-11-10T06:12:01.636Z,0
2018-11-10T06:13:15.440Z,4
2018-11-10T06:14:29.218Z,4
2018-11-10T06:15:43.250Z,8
2018-11-10T06:16:57.056Z,8
2018-11-10T06:18:11.812Z,8
2018-11-10T06:19:25.846Z,8
2018-11-10T06:20:40.071Z,8
2018-11-10T06:21:53.607Z,8
2018-11-10T06:23:07.375Z,12
2018-11-10T06:24:21.707Z,12
2018-11-10T06:25:35.725Z,20
2018-11-10T06:26:49.758Z,32
2018-11-10T06:28:04.017Z,28
2018-11-10T06:29:17.327Z,24
2018-11-10T06:30:32.069Z,28
2018-11-10T06:31:46.315Z,28
2018-11-10T06:33:00.590Z,28
2018-11-10T06:34:14.636Z,24
2018-11-10T06:35:28.194Z,32
2018-11-10T06:36:42.050Z,36
2018-11-10T06:37:55.910Z,44
2018-11-10T06:39:09.986Z,44
2018-11-10T06:40:24.069Z,48
2018-11-10T06:41:52.979Z,60
2018-11-10T06:43:07.350Z,60
2018-11-10T06:44:21.692Z,60
2018-11-10T06:45:35.507Z,60
2018-11-10T06:46:49.560Z,68
2018-11-10T06:48:02.943Z,88
2018-11-10T06:49:17.544Z,108
2018-11-10T06:50:31.088Z,120
2018-11-10T06:51:45.595Z,160
2018-11-10T06:52:59.750Z,156
2018-11-10T06:54:14.069Z,120
2018-11-10T06:55:28.380Z,96
2018-11-10T06:56:42.507Z,88
2018-11-10T06:57:56.319Z,116
2018-11-10T06:59:10.113Z,152
2018-11-10T07:00:23.887Z,176
2018-11-10T07:01:38.598Z,152
2018-11-10T07:02:52.615Z,164
2018-11-10T07:04:06.169Z,188
2018-11-10T07:05:19.763Z,228
2018-11-10T07:06:33.542Z,280
2018-11-10T07:08:16.482Z,276
2018-11-10T07:09:31.738Z,224
2018-11-10T07:10:45.902Z,176
2018-11-10T07:11:59.696Z,172
2018-11-10T07:13:13.739Z,180
2018-11-10T07:14:27.796Z,160
2018-11-10T07:15:42.041Z,172
2018-11-10T07:16:55.592Z,184
2018-11-10T07:18:09.864Z,180
2018-11-10T07:19:23.875Z,148
2018-11-10T07:20:37.697Z,128
2018-11-10T07:21:51.989Z,120
2018-11-10T07:23:05.762Z,132
2018-11-10T07:24:19.548Z,164
2018-11-10T07:25:33.581Z,156
2018-11-10T07:26:47.616Z,196
2018-11-10T07:28:01.216Z,208
2018-11-10T07:29:15.362Z,208
2018-11-10T07:30:29.175Z,244
2018-11-10T07:31:43.229Z,328
2018-11-10T07:32:57.536Z,404
2018-11-10T07:34:11.301Z,440
2018-11-10T07:35:25.320Z,532
2018-11-10T07:36:38.629Z,584
2018-11-10T07:37:52.892Z,588
2018-11-10T07:39:07.389Z,576
2018-11-10T07:40:21.641Z,532
2018-11-10T07:41:35.431Z,496
2018-11-10T07:42:49.557Z,456
2018-11-10T07:44:03.733Z,352
2018-11-10T07:45:18.270Z,316
2018-11-10T07:46:32.288Z,256
2018-11-10T07:47:46.086Z,236
2018-11-10T07:48:59.890Z,268
2018-11-10T07:50:13.682Z,236
2018-11-10T07:51:28.733Z,248
2018-11-10T07:52:42.741Z,332
2018-11-10T07:53:56.538Z,484
2018-11-10T07:55:10.334Z,596
2018-11-10T07:56:24.142Z,540
2018-11-10T07:57:38.304Z,464
2018-11-10T07:58:52.094Z,472
2018-11-10T08:00:06.353Z,552
2018-11-10T08:01:20.152Z,608
2018-11-10T08:02:34.554Z,616
2018-11-10T08:03:48.906Z,624
2018-11-10T08:05:02.969Z,592
2018-11-10T08:06:16.978Z,536
2018-11-10T08:07:30.782Z,624
2018-11-10T08:08:44.831Z,596
2018-11-10T08:09:59.411Z,620
2018-11-10T08:11:13.461Z,604
2018-11-10T08:12:27.017Z,592
2018-11-10T08:13:40.831Z,636
2018-11-10T08:14:54.623Z,668
2018-11-10T08:16:08.040Z,656
2018-11-10T08:17:21.983Z,604
2018-11-10T08:18:36.139Z,584
2018-11-10T08:19:50.809Z,508
2018-11-10T08:21:04.626Z,492
2018-11-10T08:25:01.759Z,824
2018-11-10T08:26:15.746Z,896
2018-11-10T08:27:30.230Z,960
2018-11-10T08:28:58.926Z,1028
2018-11-10T08:30:12.984Z,1084
2018-11-10T08:31:28.323Z,844
2018-11-10T08:32:42.104Z,728
2018-11-10T08:33:56.587Z,592
2018-11-10T08:35:11.071Z,504
2018-11-10T08:36:40.425Z,472
2018-11-10T08:37:54.493Z,436
2018-11-10T08:39:08.923Z,412
2018-11-10T08:40:23.426Z,420
2018-11-10T08:41:37.436Z,448
2018-11-10T08:42:52.046Z,512
2018-11-10T08:44:06.348Z,588
2018-11-10T08:45:20.175Z,548
2018-11-10T08:46:33.795Z,576
2018-11-10T08:47:47.824Z,660
2018-11-10T08:49:01.790Z,720
2018-11-10T08:50:15.619Z,716
2018-11-10T08:51:29.654Z,700
2018-11-10T08:52:44.142Z,684
2018-11-10T08:53:58.404Z,656
2018-11-10T08:55:12.234Z,656
2018-11-10T08:56:26.516Z,652
2018-11-10T08:57:40.357Z,656
2018-11-10T08:58:54.624Z,696
2018-11-10T09:00:09.089Z,716
2018-11-10T09:01:23.611Z,676
2018-11-10T09:02:37.640Z,640
2018-11-10T09:03:51.915Z,620
2018-11-10T09:05:06.187Z,616
2018-11-10T09:06:19.784Z,624
2018-11-10T09:07:33.731Z,620
2018-11-10T09:08:47.556Z,636
2018-11-10T09:10:02.165Z,628
2018-11-10T09:11:16.082Z,700
2018-11-10T09:12:29.884Z,712
2018-11-10T09:13:43.956Z,736
2018-11-10T09:14:57.985Z,796
2018-11-10T09:16:12.415Z,976
2018-11-10T09:17:26.928Z,1068
2018-11-10T09:18:41.237Z,1172
2018-11-10T09:19:55.523Z,1196
2018-11-10T09:21:10.337Z,1376
2018-11-10T09:22:24.942Z,1528
2018-11-10T09:23:38.748Z,1752
2018-11-10T09:24:52.775Z,1820
2018-11-10T09:26:06.601Z,1768
2018-11-10T09:27:20.658Z,1864
2018-11-10T09:28:35.062Z,1920
2018-11-10T09:29:49.112Z,1968
2018-11-10T09:31:04.248Z,2004
2018-11-10T09:32:18.328Z,2004
2018-11-10T09:33:32.570Z,2012
2018-11-10T09:34:46.135Z,1976
2018-11-10T09:36:00.422Z,1892
2018-11-10T09:37:14.330Z,1920
2018-11-10T09:38:28.623Z,2004
2018-11-10T09:39:42.224Z,2112
2018-11-10T09:40:56.403Z,2276
2018-11-10T09:42:10.414Z,2336
2018-11-10T09:43:23.573Z,1960
2018-11-10T09:44:37.624Z,1572
2018-11-10T09:45:51.210Z,1452
2018-11-10T09:47:05.313Z,1564
2018-11-10T09:48:18.893Z,1668
2018-11-10T09:49:32.445Z,1852
2018-11-10T09:50:47.364Z,2104
2018-11-10T09:52:02.153Z,2276
2018-11-10T09:53:16.312Z,2368
2018-11-10T09:54:30.841Z,2424
2018-11-10T09:55:44.660Z,2412
2018-11-10T09:56:58.289Z,2428
2018-11-10T09:58:12.106Z,2472
2018-11-10T09:59:25.674Z,2480
2018-11-10T10:00:39.512Z,2372
2018-11-10T10:01:55.594Z,2352
2018-11-10T10:03:11.494Z,2348
2018-11-10T10:04:25.772Z,2172
2018-11-10T10:05:39.644Z,2232
2018-11-10T10:06:53.520Z,2088
2018-11-10T10:08:07.364Z,2120
2018-11-10T10:09:21.019Z,2344
2018-11-10T10:10:35.157Z,2412
2018-11-10T10:11:48.743Z,2456
2018-11-10T10:13:02.575Z,2548
2018-11-10T10:14:16.494Z,2668
2018-11-10T10:15:30.362Z,2728
2018-11-10T10:16:44.958Z,2772
2018-11-10T10:17:58.835Z,2812
2018-11-10T10:19:12.751Z,2800
2018-11-10T10:20:26.312Z,2776
2018-11-10T10:21:40.886Z,2768
2018-11-10T10:22:55.097Z,2764
2018-11-10T10:24:09.166Z,2804
2018-11-10T10:25:22.768Z,2784
2018-11-10T10:26:37.044Z,2776
2018-11-10T10:27:51.133Z,2748
2018-11-10T10:29:06.336Z,2808
2018-11-10T10:30:35.062Z,3008
2018-11-10T10:31:49.108Z,2976
2018-11-10T10:33:03.218Z,2896
2018-11-10T10:34:17.247Z,2788
2018-11-10T10:35:32.807Z,2732
2018-11-10T10:36:47.574Z,2692
2018-11-10T10:38:01.199Z,2696
2018-11-10T10:39:15.235Z,2720
2018-11-10T10:40:29.825Z,2764
2018-11-10T10:41:43.433Z,2792
2018-11-10T10:42:57.642Z,2784
2018-11-10T10:44:12.347Z,2800
2018-11-10T10:45:26.477Z,2832
2018-11-10T10:46:40.684Z,2840
2018-11-10T10:47:54.762Z,2856
2018-11-10T10:49:10.062Z,2868
2018-11-10T10:50:24.384Z,2860
2018-11-10T10:51:38.973Z,2808
2018-11-10T10:52:53.292Z,2772
2018-11-10T10:54:06.882Z,2672
2018-11-10T10:55:35.585Z,2712
2018-11-10T10:56:49.962Z,2688
2018-11-10T10:58:04.040Z,2568
2018-11-10T10:59:18.320Z,2544
2018-11-10T11:00:31.900Z,2512
2018-11-10T11:01:45.953Z,2520
2018-11-10T11:03:04.547Z,2648
2018-11-10T11:04:18.571Z,2816
2018-11-10T11:05:32.563Z,2984
2018-11-10T11:06:46.166Z,3044
2018-11-10T11:07:59.944Z,3020
2018-11-10T11:09:13.941Z,2972
2018-11-10T11:10:28.555Z,2940
2018-11-10T11:11:42.889Z,2940
2018-11-10T11:12:57.173Z,2820
2018-11-10T11:14:11.445Z,2720
2018-11-10T11:15:25.967Z,2616
2018-11-10T11:16:39.706Z,2568
2018-11-10T11:17:53.731Z,2600
2018-11-10T11:19:23.031Z,2680
2018-11-10T11:20:36.818Z,2740
2018-11-10T11:21:50.796Z,2808
2018-11-10T11:23:04.782Z,2796
2018-11-10T11:24:19.055Z,2772
2018-11-10T11:25:33.771Z,2728
2018-11-10T11:26:47.832Z,2660
2018-11-10T11:28:02.136Z,2632
2018-11-10T11:29:17.044Z,2596
2018-11-10T11:30:30.982Z,2560
2018-11-10T11:31:45.028Z,2528
2018-11-10T11:32:59.336Z,2540
2018-11-10T11:34:13.438Z,2556
2018-11-10T11:35:28.309Z,2564
2018-11-10T11:36:42.165Z,2592
2018-11-10T11:37:56.231Z,2600
2018-11-10T11:39:10.332Z,2624
2018-11-10T11:40:24.669Z,2664
2018-11-10T11:41:38.960Z,2764
2018-11-10T11:42:53.361Z,2832
2018-11-10T11:44:07.193Z,2840
2018-11-10T11:45:21.039Z,2852
2018-11-10T11:46:35.112Z,2768
2018-11-10T11:47:49.193Z,2676
2018-11-10T11:49:03.027Z,2588
2018-11-10T11:50:17.064Z,2504
2018-11-10T11:51:31.112Z,2480
2018-11-10T11:52:45.052Z,2512
2018-11-10T11:53:59.100Z,2508
2018-11-10T11:55:13.128Z,2560
2018-11-10T11:56:27.405Z,2696
2018-11-10T11:57:41.725Z,2892
2018-11-10T11:58:56.743Z,3080
2018-11-10T12:00:10.803Z,3252
2018-11-10T12:01:24.867Z,3332
2018-11-10T12:02:38.430Z,3396
2018-11-10T12:03:52.490Z,3420
2018-11-10T12:05:06.091Z,3456
2018-11-10T12:06:19.434Z,3424
2018-11-10T12:07:33.218Z,3380
2018-11-10T12:08:47.291Z,3300
2018-11-10T12:10:01.541Z,3188
2018-11-10T12:11:15.887Z,3100
2018-11-10T12:12:29.724Z,2992
2018-11-10T12:13:43.583Z,2900
2018-11-10T12:14:58.222Z,2780
2018-11-10T12:16:12.080Z,2724
2018-11-10T12:17:37.451Z,2756
2018-11-10T12:18:51.470Z,2620
2018-11-10T12:20:05.265Z,2444
2018-11-10T12:21:19.350Z,2352
2018-11-10T12:22:33.386Z,2352
2018-11-10T12:23:47.465Z,2332
2018-11-10T12:25:01.750Z,2288
2018-11-10T12:26:15.956Z,2260
2018-11-10T12:27:29.869Z,2260
2018-11-10T12:28:43.925Z,2264
2018-11-10T12:29:58.430Z,2292
2018-11-10T12:31:12.301Z,2304
2018-11-10T12:32:26.520Z,2284
2018-11-10T12:33:55.020Z,2256
2018-11-10T12:35:08.874Z,2268
2018-11-10T12:36:22.520Z,2352
2018-11-10T12:37:36.368Z,2428
2018-11-10T12:38:50.591Z,2496
2018-11-10T12:40:04.798Z,2532
2018-11-10T12:41:18.927Z,2576
2018-11-10T12:42:33.046Z,2680
2018-11-10T12:43:47.360Z,2664
2018-11-10T12:45:01.421Z,2592
2018-11-10T12:46:15.540Z,2584
2018-11-10T12:47:29.571Z,2652
2018-11-10T12:48:44.013Z,2628
2018-11-10T12:49:58.295Z,2532
2018-11-10T12:51:12.158Z,2528
2018-11-10T12:52:26.216Z,2568
2018-11-10T12:53:40.574Z,2460
2018-11-10T12:54:54.596Z,2428
2018-11-10T12:56:08.834Z,2408
2018-11-10T12:57:22.897Z,2424
2018-11-10T12:59:00.432Z,2360
2018-11-10T13:00:14.930Z,2228
2018-11-10T13:01:29.012Z,2168
2018-11-10T13:02:43.285Z,2128
2018-11-10T13:03:57.389Z,2072
2018-11-10T13:05:11.936Z,1984
2018-11-10T13:06:25.509Z,1968
2018-11-10T13:07:39.861Z,1996
2018-11-10T13:08:53.795Z,2008
2018-11-10T13:10:08.524Z,2020
2018-11-10T13:11:24.034Z,2048
2018-11-10T13:12:38.317Z,2008
2018-11-10T13:13:51.682Z,1972
2018-11-10T13:15:05.980Z,1972
2018-11-10T13:16:20.118Z,1964
2018-11-10T13:17:35.105Z,1892
2018-11-10T13:18:49.433Z,1796
2018-11-10T13:20:03.038Z,1744
2018-11-10T13:21:16.840Z,1692
2018-11-10T13:22:30.411Z,1692
2018-11-10T13:23:44.470Z,1668
2018-11-10T13:24:58.802Z,1620
2018-11-10T13:26:12.440Z,1576
2018-11-10T13:27:26.027Z,1532
2018-11-10T13:28:40.333Z,1472
2018-11-10T13:29:54.654Z,1448
2018-11-10T13:31:09.948Z,1480
2018-11-10T13:32:25.090Z,1524
2018-11-10T13:33:39.377Z,1540
2018-11-10T13:34:53.207Z,1536
2018-11-10T13:36:07.092Z,1496
2018-11-10T13:37:21.172Z,1500
2018-11-10T13:38:35.375Z,1556
2018-11-10T13:39:49.177Z,1592
2018-11-10T13:41:03.671Z,1600
2018-11-10T13:42:17.637Z,1612
2018-11-10T13:43:31.735Z,1612
2018-11-10T13:44:45.934Z,1616
2018-11-10T13:45:59.710Z,1652
2018-11-10T13:47:13.558Z,1672
2018-11-10T13:48:27.841Z,1696
2018-11-10T13:49:41.655Z,1724
2018-11-10T13:52:25.665Z,1796
2018-11-10T13:53:41.117Z,1772
2018-11-10T13:54:55.609Z,1740
2018-11-10T13:56:09.473Z,1692
2018-11-10T13:57:23.527Z,1576
2018-11-10T13:58:37.562Z,1416
2018-11-10T13:59:52.092Z,1304
2018-11-10T14:01:05.906Z,1244
2018-11-10T14:02:20.330Z,1160
2018-11-10T14:03:34.562Z,1080
2018-11-10T14:04:48.628Z,1040
2018-11-10T14:06:02.470Z,960
2018-11-10T14:07:15.954Z,868
2018-11-10T14:08:30.639Z,796
2018-11-10T14:09:44.970Z,692
2018-11-10T14:10:59.048Z,656
2018-11-10T14:12:12.873Z,656
2018-11-10T14:13:26.901Z,704
2018-11-10T14:14:41.221Z,644
2018-11-10T14:15:54.824Z,624
2018-11-10T14:17:09.112Z,584
2018-11-10T14:18:23.411Z,520
2018-11-10T14:19:37.711Z,424
2018-11-10T14:20:52.666Z,372
2018-11-10T14:22:06.215Z,492
2018-11-10T14:23:20.691Z,480
2018-11-10T14:24:35.450Z,576
2018-11-10T14:25:49.480Z,560
2018-11-10T14:27:03.756Z,420
2018-11-10T14:28:17.576Z,412
2018-11-10T14:29:31.842Z,320
2018-11-10T14:30:46.168Z,328
2018-11-10T14:31:59.979Z,528
2018-11-10T14:33:13.562Z,608
2018-11-10T14:34:27.630Z,588
2018-11-10T14:35:56.452Z,496
2018-11-10T14:37:10.850Z,448
2018-11-10T14:38:25.176Z,536
2018-11-10T14:39:38.947Z,560
2018-11-10T14:40:53.173Z,540
2018-11-10T14:42:06.540Z,592
2018-11-10T14:43:20.891Z,552
2018-11-10T14:44:35.173Z,544
2018-11-10T14:45:49.398Z,524
2018-11-10T14:47:02.983Z,528
2018-11-10T14:48:16.407Z,540
2018-11-10T14:49:30.490Z,508
2018-11-10T14:50:44.302Z,480
2018-11-10T14:51:58.343Z,444
2018-11-10T14:53:12.964Z,400
2018-11-10T14:54:27.661Z,348
2018-11-10T14:55:41.537Z,320
2018-11-10T14:56:55.850Z,280
2018-11-10T14:58:09.724Z,252
2018-11-10T14:59:24.080Z,224
2018-11-10T15:00:37.979Z,212
2018-11-10T15:01:51.884Z,208
2018-11-10T15:03:05.540Z,200
2018-11-10T15:04:34.576Z,184
2018-11-10T15:05:49.364Z,172
2018-11-10T15:07:03.501Z,164
2018-11-10T15:08:17.721Z,156
2018-11-10T15:09:31.589Z,148
2018-11-10T15:10:45.656Z,144
2018-11-10T15:12:00.419Z,140
2018-11-10T15:13:14.801Z,136
2018-11-10T15:14:29.120Z,132
2018-11-10T15:15:42.705Z,124
2018-11-10T15:16:56.746Z,120
2018-11-10T15:18:10.992Z,120
2018-11-10T15:19:25.840Z,116
2018-11-10T15:20:39.435Z,116
2018-11-10T15:21:53.789Z,108
2018-11-10T15:23:07.877Z,104
2018-11-10T15:24:22.166Z,100
2018-11-10T15:25:36.942Z,104
2018-11-10T15:26:51.275Z,104
2018-11-10T15:28:05.360Z,104
2018-11-10T15:29:18.972Z,104
2018-11-10T15:30:33.254Z,96
2018-11-10T15:31:47.336Z,100
2018-11-10T15:33:01.419Z,96
2018-11-10T15:34:15.516Z,92
2018-11-10T15:35:29.356Z,88
2018-11-10T15:36:43.386Z,84
2018-11-10T15:37:57.895Z,76
2018-11-10T15:39:11.719Z,72
2018-11-10T15:40:25.737Z,72
2018-11-10T15:41:40.157Z,60
2018-11-10T15:42:54.346Z,60
2018-11-10T15:44:08.630Z,56
2018-11-10T15:45:22.693Z,48
2018-11-10T15:46:36.878Z,40
2018-11-10T15:47:51.158Z,36
2018-11-10T15:49:05.586Z,32
2018-11-10T15:50:20.018Z,24
2018-11-10T15:51:34.324Z,24
2018-11-10T15:52:47.934Z,20
2018-11-10T15:54:01.736Z,16
2018-11-10T15:55:15.779Z,12
2018-11-10T15:56:29.607Z,12
2018-11-10T15:57:44.331Z,8
2018-11-10T15:58:58.772Z,8
2018-11-10T16:00:12.827Z,4
2018-11-10T16:01:26.905Z,4
2018-11-10T16:02:41.032Z,4
2018-11-10T16:03:54.849Z,4
2018-11-10T16:05:08.762Z,4
2018-11-10T16:06:23.033Z,4
2018-11-10T16:07:36.844Z,4
2018-11-10T16:08:51.161Z,0
2018-11-10T16:10:05.097Z,0
2018-11-10T16:11:18.810Z,0
2018-11-10T16:12:32.854Z,0
2018-11-10T16:13:46.917Z,0
2018-11-10T16:15:01.533Z,0
2018-11-10T16:16:15.351Z,0
2018-11-10T16:17:29.848Z,0
2018-11-10T16:18:43.888Z,0
2018-11-10T16:19:57.690Z,0
2018-11-10T16:21:12.631Z,0
2018-11-10T16:22:26.701Z,0
2018-11-10T16:23:41.008Z,0
2018-11-10T16:24:54.592Z,0
2018-11-10T16:26:08.845Z,0
2018-11-10T16:27:23.352Z,0
2018-11-10T16:28:37.785Z,0
2018-11-10T16:29:52.117Z,0
2018-11-10T16:31:06.378Z,0
2018-11-10T16:32:20.904Z,0
2018-11-10T16:33:34.523Z,0
2018-11-10T16:34:48.091Z,0
2018-11-10T16:36:02.353Z,0
2018-11-10T16:37:16.793Z,0
2018-11-10T16:38:30.238Z,0
2018-11-10T16:39:44.306Z,0
2018-11-10T16:40:58.648Z,0
2018-11-10T16:42:12.699Z,0
2018-11-10T16:43:26.952Z,0
2018-11-10T16:44:41.581Z,0
2018-11-10T16:45:56.472Z,0
2018-11-10T16:47:10.317Z,0
2018-11-10T16:48:24.271Z,0
2018-11-10T16:49:38.323Z,0
2018-11-10T16:50:52.455Z,0
2018-11-10T16:52:06.795Z,0
2018-11-10T16:53:20.522Z,0
2018-11-10T16:54:34.507Z,0
2018-11-10T16:55:48.870Z,0
2018-11-10T16:57:02.976Z,0
2018-11-10T16:58:17.123Z,0
2018-11-10T16:59:31.700Z,0
2018-11-10T17:00:45.824Z,0
2018-11-10T17:02:00.155Z,0
2018-11-10T17:03:14.295Z,0
2018-11-10T17:04:28.698Z,0
2018-11-10T17:05:42.212Z,0
2018-11-10T17:06:56.892Z,0
2018-11-10T17:08:11.496Z,0
2018-11-10T17:09:24.957Z,0
2018-11-10T17:10:39.070Z,0
2018-11-10T17:11:53.170Z,0
2018-11-10T17:13:07.131Z,0
2018-11-10T17:14:21.655Z,0
2018-11-10T17:15:36.397Z,0
2018-11-10T17:16:50.563Z,0
2018-11-10T17:18:04.844Z,0
2018-11-10T17:19:18.716Z,0
2018-11-10T17:20:32.895Z,0
2018-11-10T17:21:47.470Z,0
2018-11-10T17:23:02.149Z,0
2018-11-10T17:24:16.187Z,0
2018-11-10T17:25:30.017Z,0
2018-11-10T17:26:43.792Z,0
2018-11-10T17:27:58.049Z,0
2018-11-10T17:29:12.203Z,0
2018-11-10T17:30:25.892Z,0
2018-11-10T17:31:40.299Z,0
2018-11-10T17:32:54.418Z,0
2018-11-10T17:34:08.733Z,0